sensor_id;sensor_type;location;lat;lon;timestamp;P1;durP1;ratioP1;P2;durP2;ratioP2
37087;SDS011;23002;52.676;6.432;2023-03-01T00:02:08;14.20;;;7.68;;
37087;SDS011;23002;52.676;6.432;2023-03-01T00:04:35;14.38;;;7.82;;
37087;SDS011;23002;52.676;6.432;2023-03-01T00:07:02;15.20;;;6.68;;
37087;SDS011;23002;52.676;6.432;2023-03-01T00:09:29;15.55;;;7.85;;
37087;SDS011;23002;52.676;6.432;2023-03-01T00:11:57;16.90;;;8.18;;
37087;SDS011;23002;52.676;6.432;2023-03-01T00:14:24;14.65;;;7.32;;
37087;SDS011;23002;52.676;6.432;2023-03-01T00:16:51;17.60;;;8.45;;
37087;SDS011;23002;52.676;6.432;2023-03-01T00:19:18;20.27;;;9.02;;
37087;SDS011;23002;52.676;6.432;2023-03-01T00:21:46;19.52;;;9.10;;
37087;SDS011;23002;52.676;6.432;2023-03-01T00:24:13;17.27;;;9.85;;
37087;SDS011;23002;52.676;6.432;2023-03-01T00:26:41;15.77;;;8.32;;
37087;SDS011;23002;52.676;6.432;2023-03-01T00:29:08;20.15;;;8.57;;
37087;SDS011;23002;52.676;6.432;2023-03-01T00:31:35;19.58;;;8.40;;
37087;SDS011;23002;52.676;6.432;2023-03-01T00:34:03;22.15;;;8.82;;
37087;SDS011;23002;52.676;6.432;2023-03-01T00:36:32;15.38;;;7.80;;
37087;SDS011;23002;52.676;6.432;2023-03-01T00:39:00;20.73;;;9.07;;
37087;SDS011;23002;52.676;6.432;2023-03-01T00:41:27;19.08;;;10.13;;
37087;SDS011;23002;52.676;6.432;2023-03-01T00:43:54;18.45;;;9.63;;
37087;SDS011;23002;52.676;6.432;2023-03-01T00:46:23;21.73;;;8.68;;
37087;SDS011;23002;52.676;6.432;2023-03-01T00:48:50;25.65;;;10.43;;
37087;SDS011;23002;52.676;6.432;2023-03-01T00:51:21;22.00;;;8.90;;
37087;SDS011;23002;52.676;6.432;2023-03-01T00:53:56;23.90;;;9.73;;
37087;SDS011;23002;52.676;6.432;2023-03-01T00:56:23;19.23;;;10.18;;
37087;SDS011;23002;52.676;6.432;2023-03-01T00:58:51;18.48;;;9.48;;
37087;SDS011;23002;52.676;6.432;2023-03-01T01:01:19;22.48;;;9.05;;
37087;SDS011;23002;52.676;6.432;2023-03-01T01:03:49;19.02;;;9.18;;
37087;SDS011;23002;52.676;6.432;2023-03-01T01:06:21;24.70;;;10.10;;
37087;SDS011;23002;52.676;6.432;2023-03-01T01:08:48;18.13;;;8.85;;
37087;SDS011;23002;52.676;6.432;2023-03-01T01:11:16;20.98;;;9.65;;
37087;SDS011;23002;52.676;6.432;2023-03-01T01:13:44;18.58;;;8.80;;
37087;SDS011;23002;52.676;6.432;2023-03-01T01:16:12;20.15;;;9.23;;
37087;SDS011;23002;52.676;6.432;2023-03-01T01:18:39;22.13;;;10.10;;
37087;SDS011;23002;52.676;6.432;2023-03-01T01:21:10;21.95;;;10.23;;
37087;SDS011;23002;52.676;6.432;2023-03-01T01:23:39;23.85;;;10.93;;
37087;SDS011;23002;52.676;6.432;2023-03-01T01:26:07;21.50;;;10.25;;
37087;SDS011;23002;52.676;6.432;2023-03-01T01:28:34;24.02;;;10.50;;
37087;SDS011;23002;52.676;6.432;2023-03-01T01:31:01;18.75;;;9.70;;
37087;SDS011;23002;52.676;6.432;2023-03-01T01:33:28;26.23;;;10.00;;
37087;SDS011;23002;52.676;6.432;2023-03-01T01:35:56;30.08;;;10.65;;
37087;SDS011;23002;52.676;6.432;2023-03-01T01:38:23;25.67;;;11.35;;
37087;SDS011;23002;52.676;6.432;2023-03-01T01:40:50;18.88;;;9.18;;
37087;SDS011;23002;52.676;6.432;2023-03-01T01:45:45;25.85;;;10.95;;
37087;SDS011;23002;52.676;6.432;2023-03-01T01:48:13;28.25;;;10.73;;
37087;SDS011;23002;52.676;6.432;2023-03-01T01:50:43;22.77;;;10.57;;
37087;SDS011;23002;52.676;6.432;2023-03-01T01:53:12;24.42;;;10.27;;
37087;SDS011;23002;52.676;6.432;2023-03-01T01:55:42;26.85;;;11.02;;
37087;SDS011;23002;52.676;6.432;2023-03-01T01:58:11;21.05;;;10.07;;
37087;SDS011;23002;52.676;6.432;2023-03-01T02:00:40;25.35;;;11.55;;
37087;SDS011;23002;52.676;6.432;2023-03-01T02:03:08;27.10;;;12.25;;
37087;SDS011;23002;52.676;6.432;2023-03-01T02:08:21;29.33;;;10.90;;
37087;SDS011;23002;52.676;6.432;2023-03-01T02:10:49;30.00;;;11.57;;
37087;SDS011;23002;52.676;6.432;2023-03-01T02:13:17;28.67;;;12.52;;
37087;SDS011;23002;52.676;6.432;2023-03-01T02:15:44;26.08;;;10.48;;
37087;SDS011;23002;52.676;6.432;2023-03-01T02:18:12;20.90;;;9.30;;
37087;SDS011;23002;52.676;6.432;2023-03-01T02:23:27;26.23;;;10.55;;
37087;SDS011;23002;52.676;6.432;2023-03-01T02:28:34;23.40;;;11.27;;
37087;SDS011;23002;52.676;6.432;2023-03-01T02:31:06;27.90;;;11.57;;
37087;SDS011;23002;52.676;6.432;2023-03-01T02:33:53;26.05;;;11.02;;
37087;SDS011;23002;52.676;6.432;2023-03-01T02:36:43;25.35;;;11.80;;
37087;SDS011;23002;52.676;6.432;2023-03-01T02:39:08;28.08;;;10.57;;
37087;SDS011;23002;52.676;6.432;2023-03-01T02:41:41;23.80;;;10.55;;
37087;SDS011;23002;52.676;6.432;2023-03-01T02:44:09;28.50;;;10.27;;
37087;SDS011;23002;52.676;6.432;2023-03-01T02:46:42;25.38;;;11.20;;
37087;SDS011;23002;52.676;6.432;2023-03-01T02:49:20;24.35;;;11.13;;
37087;SDS011;23002;52.676;6.432;2023-03-01T02:54:25;29.85;;;12.13;;
37087;SDS011;23002;52.676;6.432;2023-03-01T02:56:54;25.20;;;10.43;;
37087;SDS011;23002;52.676;6.432;2023-03-01T02:59:22;46.13;;;13.73;;
37087;SDS011;23002;52.676;6.432;2023-03-01T03:01:51;30.35;;;11.88;;
37087;SDS011;23002;52.676;6.432;2023-03-01T03:04:18;94.30;;;19.50;;
37087;SDS011;23002;52.676;6.432;2023-03-01T03:06:48;60.42;;;16.05;;
37087;SDS011;23002;52.676;6.432;2023-03-01T03:09:16;72.65;;;15.85;;
37087;SDS011;23002;52.676;6.432;2023-03-01T03:11:43;79.75;;;19.20;;
37087;SDS011;23002;52.676;6.432;2023-03-01T03:14:11;97.10;;;19.35;;
37087;SDS011;23002;52.676;6.432;2023-03-01T03:16:40;77.10;;;14.27;;
37087;SDS011;23002;52.676;6.432;2023-03-01T03:19:07;68.72;;;15.48;;
37087;SDS011;23002;52.676;6.432;2023-03-01T03:21:35;41.75;;;16.08;;
37087;SDS011;23002;52.676;6.432;2023-03-01T03:24:02;58.03;;;15.88;;
37087;SDS011;23002;52.676;6.432;2023-03-01T03:26:29;60.35;;;17.75;;
37087;SDS011;23002;52.676;6.432;2023-03-01T03:28:57;50.78;;;16.65;;
37087;SDS011;23002;52.676;6.432;2023-03-01T03:31:24;55.55;;;16.55;;
37087;SDS011;23002;52.676;6.432;2023-03-01T03:33:51;71.82;;;16.77;;
37087;SDS011;23002;52.676;6.432;2023-03-01T03:36:20;46.08;;;14.93;;
37087;SDS011;23002;52.676;6.432;2023-03-01T03:38:47;40.88;;;12.95;;
37087;SDS011;23002;52.676;6.432;2023-03-01T03:41:15;38.42;;;14.85;;
37087;SDS011;23002;52.676;6.432;2023-03-01T03:43:42;39.25;;;15.13;;
37087;SDS011;23002;52.676;6.432;2023-03-01T03:46:10;32.75;;;13.27;;
37087;SDS011;23002;52.676;6.432;2023-03-01T03:48:38;33.95;;;12.88;;
37087;SDS011;23002;52.676;6.432;2023-03-01T03:51:06;39.42;;;12.00;;
37087;SDS011;23002;52.676;6.432;2023-03-01T03:53:33;35.83;;;14.55;;
37087;SDS011;23002;52.676;6.432;2023-03-01T03:56:01;36.55;;;14.10;;
37087;SDS011;23002;52.676;6.432;2023-03-01T03:58:28;28.48;;;10.85;;
37087;SDS011;23002;52.676;6.432;2023-03-01T04:00:55;28.23;;;12.05;;
37087;SDS011;23002;52.676;6.432;2023-03-01T04:03:24;29.45;;;9.90;;
37087;SDS011;23002;52.676;6.432;2023-03-01T04:05:52;26.70;;;10.98;;
37087;SDS011;23002;52.676;6.432;2023-03-01T04:08:20;32.08;;;12.00;;
37087;SDS011;23002;52.676;6.432;2023-03-01T04:10:49;28.98;;;11.68;;
37087;SDS011;23002;52.676;6.432;2023-03-01T04:13:17;30.65;;;11.68;;
37087;SDS011;23002;52.676;6.432;2023-03-01T04:15:46;36.47;;;11.43;;
37087;SDS011;23002;52.676;6.432;2023-03-01T04:18:13;25.80;;;11.10;;
37087;SDS011;23002;52.676;6.432;2023-03-01T04:20:41;25.02;;;11.77;;
37087;SDS011;23002;52.676;6.432;2023-03-01T04:25:45;28.02;;;10.85;;
37087;SDS011;23002;52.676;6.432;2023-03-01T04:28:12;25.38;;;10.77;;
37087;SDS011;23002;52.676;6.432;2023-03-01T04:30:40;28.58;;;11.48;;
37087;SDS011;23002;52.676;6.432;2023-03-01T04:33:08;26.88;;;11.27;;
37087;SDS011;23002;52.676;6.432;2023-03-01T04:35:36;25.95;;;10.80;;
37087;SDS011;23002;52.676;6.432;2023-03-01T04:38:03;23.70;;;9.40;;
37087;SDS011;23002;52.676;6.432;2023-03-01T04:40:31;25.70;;;11.10;;
37087;SDS011;23002;52.676;6.432;2023-03-01T04:42:58;23.10;;;9.80;;
37087;SDS011;23002;52.676;6.432;2023-03-01T04:45:25;24.48;;;9.50;;
37087;SDS011;23002;52.676;6.432;2023-03-01T04:47:53;26.27;;;10.93;;
37087;SDS011;23002;52.676;6.432;2023-03-01T04:50:21;22.63;;;9.75;;
37087;SDS011;23002;52.676;6.432;2023-03-01T04:52:49;24.65;;;8.65;;
37087;SDS011;23002;52.676;6.432;2023-03-01T04:55:16;20.13;;;9.65;;
37087;SDS011;23002;52.676;6.432;2023-03-01T04:57:43;21.88;;;8.57;;
37087;SDS011;23002;52.676;6.432;2023-03-01T05:00:11;23.40;;;9.95;;
37087;SDS011;23002;52.676;6.432;2023-03-01T05:05:22;16.85;;;7.68;;
37087;SDS011;23002;52.676;6.432;2023-03-01T05:07:55;21.90;;;9.10;;
37087;SDS011;23002;52.676;6.432;2023-03-01T05:10:23;20.13;;;9.15;;
37087;SDS011;23002;52.676;6.432;2023-03-01T05:12:50;22.83;;;9.18;;
37087;SDS011;23002;52.676;6.432;2023-03-01T05:15:19;23.65;;;9.30;;
37087;SDS011;23002;52.676;6.432;2023-03-01T05:17:48;20.88;;;9.50;;
37087;SDS011;23002;52.676;6.432;2023-03-01T05:20:15;25.30;;;9.88;;
37087;SDS011;23002;52.676;6.432;2023-03-01T05:22:42;21.00;;;8.50;;
37087;SDS011;23002;52.676;6.432;2023-03-01T05:25:10;20.13;;;10.43;;
37087;SDS011;23002;52.676;6.432;2023-03-01T05:27:40;25.60;;;9.55;;
37087;SDS011;23002;52.676;6.432;2023-03-01T05:30:07;20.25;;;8.35;;
37087;SDS011;23002;52.676;6.432;2023-03-01T05:32:41;16.80;;;9.07;;
37087;SDS011;23002;52.676;6.432;2023-03-01T05:35:10;20.85;;;8.77;;
37087;SDS011;23002;52.676;6.432;2023-03-01T05:37:40;18.80;;;9.38;;
37087;SDS011;23002;52.676;6.432;2023-03-01T05:40:09;17.48;;;7.82;;
37087;SDS011;23002;52.676;6.432;2023-03-01T05:42:52;18.10;;;9.20;;
37087;SDS011;23002;52.676;6.432;2023-03-01T05:45:20;15.68;;;8.30;;
37087;SDS011;23002;52.676;6.432;2023-03-01T05:47:48;21.50;;;9.80;;
37087;SDS011;23002;52.676;6.432;2023-03-01T05:50:19;22.58;;;9.30;;
37087;SDS011;23002;52.676;6.432;2023-03-01T05:52:47;16.00;;;8.27;;
37087;SDS011;23002;52.676;6.432;2023-03-01T05:55:18;19.92;;;8.60;;
37087;SDS011;23002;52.676;6.432;2023-03-01T05:57:46;18.60;;;8.23;;
37087;SDS011;23002;52.676;6.432;2023-03-01T06:00:14;16.02;;;7.97;;
37087;SDS011;23002;52.676;6.432;2023-03-01T06:02:41;17.08;;;7.93;;
37087;SDS011;23002;52.676;6.432;2023-03-01T06:05:09;19.73;;;8.80;;
37087;SDS011;23002;52.676;6.432;2023-03-01T06:07:37;19.52;;;8.45;;
37087;SDS011;23002;52.676;6.432;2023-03-01T06:10:05;19.02;;;8.77;;
37087;SDS011;23002;52.676;6.432;2023-03-01T06:12:32;22.23;;;10.02;;
37087;SDS011;23002;52.676;6.432;2023-03-01T06:15:00;19.70;;;9.07;;
37087;SDS011;23002;52.676;6.432;2023-03-01T06:17:30;17.27;;;7.55;;
37087;SDS011;23002;52.676;6.432;2023-03-01T06:19:57;17.63;;;8.65;;
37087;SDS011;23002;52.676;6.432;2023-03-01T06:22:24;18.83;;;8.98;;
37087;SDS011;23002;52.676;6.432;2023-03-01T06:24:51;16.90;;;7.45;;
37087;SDS011;23002;52.676;6.432;2023-03-01T06:27:18;17.35;;;8.35;;
37087;SDS011;23002;52.676;6.432;2023-03-01T06:29:46;20.58;;;8.82;;
37087;SDS011;23002;52.676;6.432;2023-03-01T06:32:13;19.20;;;8.88;;
37087;SDS011;23002;52.676;6.432;2023-03-01T06:34:40;22.67;;;8.50;;
37087;SDS011;23002;52.676;6.432;2023-03-01T06:37:07;23.48;;;9.32;;
37087;SDS011;23002;52.676;6.432;2023-03-01T06:39:35;24.60;;;9.68;;
37087;SDS011;23002;52.676;6.432;2023-03-01T06:42:02;21.08;;;9.13;;
37087;SDS011;23002;52.676;6.432;2023-03-01T06:44:29;21.00;;;8.50;;
37087;SDS011;23002;52.676;6.432;2023-03-01T06:46:56;17.17;;;8.07;;
37087;SDS011;23002;52.676;6.432;2023-03-01T06:49:23;20.13;;;8.77;;
37087;SDS011;23002;52.676;6.432;2023-03-01T06:51:50;21.50;;;9.52;;
37087;SDS011;23002;52.676;6.432;2023-03-01T06:54:17;21.90;;;9.75;;
37087;SDS011;23002;52.676;6.432;2023-03-01T06:56:48;25.35;;;10.40;;
37087;SDS011;23002;52.676;6.432;2023-03-01T06:59:16;21.63;;;9.77;;
37087;SDS011;23002;52.676;6.432;2023-03-01T07:01:43;21.73;;;9.23;;
37087;SDS011;23002;52.676;6.432;2023-03-01T07:04:11;23.30;;;8.98;;
37087;SDS011;23002;52.676;6.432;2023-03-01T07:06:39;21.73;;;10.43;;
37087;SDS011;23002;52.676;6.432;2023-03-01T07:09:06;22.48;;;9.52;;
37087;SDS011;23002;52.676;6.432;2023-03-01T07:11:33;19.45;;;10.18;;
37087;SDS011;23002;52.676;6.432;2023-03-01T07:14:01;20.17;;;9.60;;
37087;SDS011;23002;52.676;6.432;2023-03-01T07:16:28;20.75;;;9.65;;
37087;SDS011;23002;52.676;6.432;2023-03-01T07:18:55;25.13;;;10.75;;
37087;SDS011;23002;52.676;6.432;2023-03-01T07:21:25;25.10;;;10.57;;
37087;SDS011;23002;52.676;6.432;2023-03-01T07:23:52;25.55;;;10.27;;
37087;SDS011;23002;52.676;6.432;2023-03-01T07:26:19;25.65;;;11.07;;
37087;SDS011;23002;52.676;6.432;2023-03-01T07:28:46;29.42;;;12.02;;
37087;SDS011;23002;52.676;6.432;2023-03-01T07:31:13;27.40;;;10.60;;
37087;SDS011;23002;52.676;6.432;2023-03-01T07:33:40;29.65;;;13.45;;
37087;SDS011;23002;52.676;6.432;2023-03-01T07:36:08;34.85;;;14.07;;
37087;SDS011;23002;52.676;6.432;2023-03-01T07:38:36;34.58;;;14.75;;
37087;SDS011;23002;52.676;6.432;2023-03-01T07:41:03;41.08;;;17.35;;
37087;SDS011;23002;52.676;6.432;2023-03-01T07:43:31;39.17;;;17.70;;
37087;SDS011;23002;52.676;6.432;2023-03-01T07:45:59;51.47;;;20.75;;
37087;SDS011;23002;52.676;6.432;2023-03-01T07:48:27;64.38;;;23.33;;
37087;SDS011;23002;52.676;6.432;2023-03-01T07:50:57;53.85;;;23.35;;
37087;SDS011;23002;52.676;6.432;2023-03-01T07:53:24;55.72;;;24.33;;
37087;SDS011;23002;52.676;6.432;2023-03-01T07:56:05;61.13;;;25.42;;
37087;SDS011;23002;52.676;6.432;2023-03-01T07:58:36;55.72;;;23.63;;
37087;SDS011;23002;52.676;6.432;2023-03-01T08:01:08;56.03;;;22.20;;
37087;SDS011;23002;52.676;6.432;2023-03-01T08:03:35;51.65;;;22.27;;
37087;SDS011;23002;52.676;6.432;2023-03-01T08:06:04;56.45;;;22.67;;
37087;SDS011;23002;52.676;6.432;2023-03-01T08:08:32;51.22;;;21.75;;
37087;SDS011;23002;52.676;6.432;2023-03-01T08:11:00;40.42;;;18.55;;
37087;SDS011;23002;52.676;6.432;2023-03-01T08:13:28;45.13;;;19.42;;
37087;SDS011;23002;52.676;6.432;2023-03-01T08:16:00;36.45;;;17.55;;
37087;SDS011;23002;52.676;6.432;2023-03-01T08:18:28;39.50;;;16.85;;
37087;SDS011;23002;52.676;6.432;2023-03-01T08:20:55;38.92;;;18.75;;
37087;SDS011;23002;52.676;6.432;2023-03-01T08:23:22;41.83;;;18.73;;
37087;SDS011;23002;52.676;6.432;2023-03-01T08:25:50;45.72;;;20.98;;
37087;SDS011;23002;52.676;6.432;2023-03-01T08:28:17;34.22;;;17.90;;
37087;SDS011;23002;52.676;6.432;2023-03-01T08:30:44;22.52;;;11.80;;
37087;SDS011;23002;52.676;6.432;2023-03-01T08:33:11;17.00;;;8.50;;
37087;SDS011;23002;52.676;6.432;2023-03-01T08:35:38;14.93;;;7.65;;
37087;SDS011;23002;52.676;6.432;2023-03-01T08:38:05;16.52;;;7.18;;
37087;SDS011;23002;52.676;6.432;2023-03-01T08:40:32;12.98;;;6.65;;
37087;SDS011;23002;52.676;6.432;2023-03-01T08:43:00;12.50;;;6.57;;
37087;SDS011;23002;52.676;6.432;2023-03-01T08:45:27;11.65;;;7.00;;
37087;SDS011;23002;52.676;6.432;2023-03-01T08:47:54;10.05;;;6.05;;
37087;SDS011;23002;52.676;6.432;2023-03-01T08:50:21;10.13;;;5.68;;
37087;SDS011;23002;52.676;6.432;2023-03-01T08:52:50;12.90;;;6.05;;
37087;SDS011;23002;52.676;6.432;2023-03-01T08:55:17;8.63;;;5.28;;
37087;SDS011;23002;52.676;6.432;2023-03-01T08:57:45;10.55;;;6.07;;
37087;SDS011;23002;52.676;6.432;2023-03-01T09:00:12;10.68;;;4.95;;
37087;SDS011;23002;52.676;6.432;2023-03-01T09:02:41;10.75;;;5.43;;
37087;SDS011;23002;52.676;6.432;2023-03-01T09:05:08;9.35;;;5.35;;
37087;SDS011;23002;52.676;6.432;2023-03-01T09:07:35;12.00;;;6.03;;
37087;SDS011;23002;52.676;6.432;2023-03-01T09:10:02;9.45;;;4.50;;
37087;SDS011;23002;52.676;6.432;2023-03-01T09:12:30;8.13;;;4.90;;
37087;SDS011;23002;52.676;6.432;2023-03-01T09:14:57;9.05;;;4.25;;
37087;SDS011;23002;52.676;6.432;2023-03-01T09:17:24;8.30;;;4.82;;
37087;SDS011;23002;52.676;6.432;2023-03-01T09:19:51;7.93;;;4.68;;
37087;SDS011;23002;52.676;6.432;2023-03-01T09:22:18;10.82;;;4.43;;
37087;SDS011;23002;52.676;6.432;2023-03-01T09:24:45;8.10;;;3.97;;
37087;SDS011;23002;52.676;6.432;2023-03-01T09:27:12;8.73;;;3.83;;
37087;SDS011;23002;52.676;6.432;2023-03-01T09:29:40;8.02;;;4.10;;
37087;SDS011;23002;52.676;6.432;2023-03-01T09:32:08;10.25;;;4.32;;
37087;SDS011;23002;52.676;6.432;2023-03-01T09:34:35;4.80;;;3.00;;
37087;SDS011;23002;52.676;6.432;2023-03-01T09:37:21;5.95;;;3.78;;
37087;SDS011;23002;52.676;6.432;2023-03-01T09:39:48;5.10;;;2.72;;
37087;SDS011;23002;52.676;6.432;2023-03-01T09:42:16;6.97;;;3.40;;
37087;SDS011;23002;52.676;6.432;2023-03-01T09:45:03;7.72;;;3.65;;
37087;SDS011;23002;52.676;6.432;2023-03-01T09:47:31;8.13;;;3.67;;
37087;SDS011;23002;52.676;6.432;2023-03-01T09:55:13;5.18;;;2.70;;
37087;SDS011;23002;52.676;6.432;2023-03-01T10:02:57;4.80;;;2.17;;
37087;SDS011;23002;52.676;6.432;2023-03-01T10:08:29;4.05;;;2.15;;
37087;SDS011;23002;52.676;6.432;2023-03-01T10:10:59;3.10;;;1.80;;
37087;SDS011;23002;52.676;6.432;2023-03-01T10:16:16;3.90;;;2.00;;
37087;SDS011;23002;52.676;6.432;2023-03-01T10:18:47;4.78;;;1.70;;
37087;SDS011;23002;52.676;6.432;2023-03-01T10:21:19;3.53;;;1.30;;
37087;SDS011;23002;52.676;6.432;2023-03-01T10:23:47;3.67;;;1.60;;
37087;SDS011;23002;52.676;6.432;2023-03-01T10:31:14;3.55;;;1.65;;
37087;SDS011;23002;52.676;6.432;2023-03-01T10:33:42;4.63;;;2.17;;
37087;SDS011;23002;52.676;6.432;2023-03-01T10:36:09;3.55;;;1.75;;
37087;SDS011;23002;52.676;6.432;2023-03-01T10:41:20;4.20;;;2.50;;
37087;SDS011;23002;52.676;6.432;2023-03-01T10:43:56;6.97;;;2.55;;
37087;SDS011;23002;52.676;6.432;2023-03-01T10:51:33;4.13;;;2.15;;
37087;SDS011;23002;52.676;6.432;2023-03-01T10:54:00;5.15;;;2.47;;
37087;SDS011;23002;52.676;6.432;2023-03-01T10:56:28;4.35;;;1.80;;
37087;SDS011;23002;52.676;6.432;2023-03-01T11:01:34;4.75;;;2.05;;
37087;SDS011;23002;52.676;6.432;2023-03-01T11:06:39;6.13;;;2.42;;
37087;SDS011;23002;52.676;6.432;2023-03-01T11:09:17;6.50;;;2.45;;
37087;SDS011;23002;52.676;6.432;2023-03-01T11:11:44;6.22;;;2.55;;
37087;SDS011;23002;52.676;6.432;2023-03-01T11:14:16;4.43;;;2.55;;
37087;SDS011;23002;52.676;6.432;2023-03-01T11:17:03;5.72;;;2.42;;
37087;SDS011;23002;52.676;6.432;2023-03-01T11:19:30;4.97;;;2.10;;
37087;SDS011;23002;52.676;6.432;2023-03-01T11:21:59;5.20;;;2.70;;
37087;SDS011;23002;52.676;6.432;2023-03-01T11:27:08;5.72;;;2.40;;
37087;SDS011;23002;52.676;6.432;2023-03-01T11:29:42;6.18;;;2.80;;
37087;SDS011;23002;52.676;6.432;2023-03-01T11:32:14;5.30;;;2.35;;
37087;SDS011;23002;52.676;6.432;2023-03-01T11:37:12;4.38;;;2.15;;
37087;SDS011;23002;52.676;6.432;2023-03-01T11:39:43;4.93;;;2.38;;
37087;SDS011;23002;52.676;6.432;2023-03-01T11:42:17;6.10;;;2.85;;
37087;SDS011;23002;52.676;6.432;2023-03-01T11:44:46;5.88;;;3.05;;
37087;SDS011;23002;52.676;6.432;2023-03-01T11:47:24;7.60;;;2.67;;
37087;SDS011;23002;52.676;6.432;2023-03-01T12:02:46;7.38;;;2.72;;
37087;SDS011;23002;52.676;6.432;2023-03-01T12:05:25;6.75;;;3.20;;
37087;SDS011;23002;52.676;6.432;2023-03-01T12:08:02;5.50;;;2.80;;
37087;SDS011;23002;52.676;6.432;2023-03-01T12:10:37;5.53;;;2.53;;
37087;SDS011;23002;52.676;6.432;2023-03-01T12:13:20;7.32;;;2.72;;
37087;SDS011;23002;52.676;6.432;2023-03-01T12:23:41;12.10;;;3.20;;
37087;SDS011;23002;52.676;6.432;2023-03-01T12:26:26;4.47;;;2.20;;
37087;SDS011;23002;52.676;6.432;2023-03-01T12:49:48;7.32;;;3.25;;
37087;SDS011;23002;52.676;6.432;2023-03-01T12:52:19;8.75;;;2.58;;
37087;SDS011;23002;52.676;6.432;2023-03-01T12:54:50;5.88;;;2.60;;
37087;SDS011;23002;52.676;6.432;2023-03-01T12:57:21;6.65;;;3.05;;
37087;SDS011;23002;52.676;6.432;2023-03-01T13:02:32;6.65;;;3.15;;
37087;SDS011;23002;52.676;6.432;2023-03-01T13:07:40;6.93;;;2.80;;
37087;SDS011;23002;52.676;6.432;2023-03-01T13:17:52;5.97;;;3.20;;
37087;SDS011;23002;52.676;6.432;2023-03-01T13:20:29;8.50;;;2.92;;
37087;SDS011;23002;52.676;6.432;2023-03-01T13:23:33;6.20;;;3.10;;
37087;SDS011;23002;52.676;6.432;2023-03-01T13:31:07;7.45;;;3.00;;
37087;SDS011;23002;52.676;6.432;2023-03-01T13:36:05;7.13;;;2.67;;
37087;SDS011;23002;52.676;6.432;2023-03-01T13:38:39;7.60;;;2.50;;
37087;SDS011;23002;52.676;6.432;2023-03-01T13:41:07;5.40;;;2.60;;
37087;SDS011;23002;52.676;6.432;2023-03-01T13:43:35;7.10;;;3.03;;
37087;SDS011;23002;52.676;6.432;2023-03-01T13:46:09;7.38;;;3.20;;
37087;SDS011;23002;52.676;6.432;2023-03-01T13:48:37;5.72;;;2.75;;
37087;SDS011;23002;52.676;6.432;2023-03-01T13:51:07;9.85;;;3.40;;
37087;SDS011;23002;52.676;6.432;2023-03-01T13:53:36;6.18;;;3.30;;
37087;SDS011;23002;52.676;6.432;2023-03-01T13:58:31;6.72;;;2.83;;
37087;SDS011;23002;52.676;6.432;2023-03-01T14:01:02;8.18;;;3.15;;
37087;SDS011;23002;52.676;6.432;2023-03-01T14:03:31;8.23;;;3.28;;
37087;SDS011;23002;52.676;6.432;2023-03-01T14:06:00;5.53;;;2.83;;
37087;SDS011;23002;52.676;6.432;2023-03-01T14:08:39;4.80;;;2.72;;
37087;SDS011;23002;52.676;6.432;2023-03-01T14:11:31;7.13;;;3.05;;
37087;SDS011;23002;52.676;6.432;2023-03-01T14:19:32;5.03;;;2.78;;
37087;SDS011;23002;52.676;6.432;2023-03-01T14:24:49;8.85;;;3.50;;
37087;SDS011;23002;52.676;6.432;2023-03-01T14:29:53;6.88;;;3.55;;
37087;SDS011;23002;52.676;6.432;2023-03-01T14:32:22;6.70;;;3.13;;
37087;SDS011;23002;52.676;6.432;2023-03-01T14:34:50;7.35;;;2.90;;
37087;SDS011;23002;52.676;6.432;2023-03-01T14:37:19;5.50;;;3.08;;
37087;SDS011;23002;52.676;6.432;2023-03-01T14:39:47;6.93;;;3.17;;
37087;SDS011;23002;52.676;6.432;2023-03-01T14:42:15;8.63;;;3.30;;
37087;SDS011;23002;52.676;6.432;2023-03-01T14:44:43;8.45;;;3.70;;
37087;SDS011;23002;52.676;6.432;2023-03-01T14:47:12;7.97;;;2.60;;
37087;SDS011;23002;52.676;6.432;2023-03-01T14:49:42;6.72;;;2.92;;
37087;SDS011;23002;52.676;6.432;2023-03-01T14:52:23;7.32;;;2.90;;
37087;SDS011;23002;52.676;6.432;2023-03-01T14:54:52;7.72;;;3.60;;
37087;SDS011;23002;52.676;6.432;2023-03-01T14:57:23;7.72;;;3.53;;
37087;SDS011;23002;52.676;6.432;2023-03-01T14:59:52;8.83;;;4.07;;
37087;SDS011;23002;52.676;6.432;2023-03-01T15:02:21;6.63;;;3.30;;
37087;SDS011;23002;52.676;6.432;2023-03-01T15:04:51;7.43;;;3.05;;
37087;SDS011;23002;52.676;6.432;2023-03-01T15:07:19;6.93;;;3.17;;
37087;SDS011;23002;52.676;6.432;2023-03-01T15:09:46;10.32;;;4.15;;
37087;SDS011;23002;52.676;6.432;2023-03-01T15:12:24;10.43;;;3.50;;
37087;SDS011;23002;52.676;6.432;2023-03-01T15:14:52;8.63;;;3.60;;
37087;SDS011;23002;52.676;6.432;2023-03-01T15:17:33;9.05;;;3.85;;
37087;SDS011;23002;52.676;6.432;2023-03-01T15:22:29;12.07;;;4.38;;
37087;SDS011;23002;52.676;6.432;2023-03-01T15:24:56;9.20;;;4.22;;
37087;SDS011;23002;52.676;6.432;2023-03-01T15:27:23;9.32;;;4.13;;
37087;SDS011;23002;52.676;6.432;2023-03-01T15:30:00;10.93;;;4.72;;
37087;SDS011;23002;52.676;6.432;2023-03-01T15:32:33;8.45;;;4.35;;
37087;SDS011;23002;52.676;6.432;2023-03-01T15:35:01;8.77;;;3.88;;
37087;SDS011;23002;52.676;6.432;2023-03-01T15:37:48;10.50;;;4.07;;
37087;SDS011;23002;52.676;6.432;2023-03-01T15:40:21;13.07;;;4.85;;
37087;SDS011;23002;52.676;6.432;2023-03-01T15:43:00;9.45;;;3.92;;
37087;SDS011;23002;52.676;6.432;2023-03-01T15:45:29;8.90;;;4.10;;
37087;SDS011;23002;52.676;6.432;2023-03-01T15:47:57;10.98;;;4.55;;
37087;SDS011;23002;52.676;6.432;2023-03-01T15:50:28;9.80;;;4.63;;
37087;SDS011;23002;52.676;6.432;2023-03-01T15:52:56;13.20;;;4.75;;
37087;SDS011;23002;52.676;6.432;2023-03-01T15:55:25;8.75;;;4.03;;
37087;SDS011;23002;52.676;6.432;2023-03-01T15:57:59;10.68;;;4.65;;
37087;SDS011;23002;52.676;6.432;2023-03-01T16:00:27;8.60;;;4.10;;
37087;SDS011;23002;52.676;6.432;2023-03-01T16:02:55;11.45;;;4.63;;
37087;SDS011;23002;52.676;6.432;2023-03-01T16:05:32;8.38;;;3.85;;
37087;SDS011;23002;52.676;6.432;2023-03-01T16:08:03;9.13;;;4.82;;
37087;SDS011;23002;52.676;6.432;2023-03-01T16:10:32;10.38;;;4.93;;
37087;SDS011;23002;52.676;6.432;2023-03-01T16:12:59;9.38;;;4.40;;
37087;SDS011;23002;52.676;6.432;2023-03-01T16:15:28;14.45;;;6.85;;
37087;SDS011;23002;52.676;6.432;2023-03-01T16:17:58;8.43;;;4.30;;
37087;SDS011;23002;52.676;6.432;2023-03-01T16:20:25;10.27;;;4.57;;
37087;SDS011;23002;52.676;6.432;2023-03-01T16:23:03;13.18;;;5.03;;
37087;SDS011;23002;52.676;6.432;2023-03-01T16:25:31;10.70;;;5.18;;
37087;SDS011;23002;52.676;6.432;2023-03-01T16:27:58;13.68;;;4.40;;
37087;SDS011;23002;52.676;6.432;2023-03-01T16:30:30;7.28;;;3.80;;
37087;SDS011;23002;52.676;6.432;2023-03-01T16:32:57;11.13;;;4.20;;
37087;SDS011;23002;52.676;6.432;2023-03-01T16:35:25;9.55;;;4.07;;
37087;SDS011;23002;52.676;6.432;2023-03-01T16:37:52;8.77;;;4.70;;
37087;SDS011;23002;52.676;6.432;2023-03-01T16:40:24;9.23;;;4.30;;
37087;SDS011;23002;52.676;6.432;2023-03-01T16:42:53;13.77;;;4.70;;
37087;SDS011;23002;52.676;6.432;2023-03-01T16:45:21;9.65;;;4.53;;
37087;SDS011;23002;52.676;6.432;2023-03-01T16:47:54;12.90;;;4.55;;
37087;SDS011;23002;52.676;6.432;2023-03-01T16:50:21;9.18;;;4.53;;
37087;SDS011;23002;52.676;6.432;2023-03-01T16:52:49;10.20;;;4.65;;
37087;SDS011;23002;52.676;6.432;2023-03-01T16:55:16;8.80;;;4.03;;
37087;SDS011;23002;52.676;6.432;2023-03-01T16:57:43;9.00;;;4.50;;
37087;SDS011;23002;52.676;6.432;2023-03-01T17:00:11;7.68;;;3.88;;
37087;SDS011;23002;52.676;6.432;2023-03-01T17:02:40;13.07;;;4.57;;
37087;SDS011;23002;52.676;6.432;2023-03-01T17:05:08;10.77;;;4.38;;